Terminal Aerodrome Forecast
Issued by NWS Charleston, WV

Current Version | Previous Version | Text Only | Print | Product List | Glossary Off
Versions: 1 2 3 4 5 6 7 8 9 10 11 12 13 14 15 16 17 18 19 20 21 22 23 24 25

000
FTUS41 KRLX 290800 AAA
TAFEKN
TAF AMD
KEKN 290900Z 2909/3006 01003KT 5SM BR FEW004 SCT021 BKN040
     FM291000 VRB03KT 6SM BR SCT040
     FM291300 30007KT P6SM SCT045=

USA.gov is the U.S. government's official web portal to all federal, state and local government web resources and services.